This demonstration page uses our WeatherBlox Daily Observations layout. Learn more.

Left ArrowRight Arrow

36.17497, -115.13722

Hourly Observations for September 11, 2016

Temp ( °F °C ) Dew Point ( °F °C ) Humidity (%) Winds ( mph kmh ) Pressure ( in mb ) Visibility ( mi km ) Precip ( " mm )
12:53 am 00:53 Clear 81 27.2 37 2.8 21 21 N 5 7 29.93 1014 10 16.0934 0 0
1:53 am 01:53 Clear 81 27.2 40 4.4 23 23 WNW 5 7 29.93 1014 10 16.0934 0 0
2:53 am 02:53 Clear 78 25.6 40 4.4 26 26 NNW 5 7 29.93 1014 10 16.0934 0 0
3:53 am 03:53 Clear 77 25 40 4.4 26 26 NNW 5 7 29.93 1014 10 16.0934 0 0
4:53 am 04:53 Clear 76 24.4 39 3.9 26 26 NNW 3 6 29.95 1014 10 16.0934 0 0
5:53 am 05:53 Clear 76 24.4 39 3.9 26 26 WNW 7 11 29.96 1015 10 16.0934 0 0
6:53 am 06:53 Sunny 75 23.9 39 3.9 27 27 NW 6 9 29.99 1016 10 16.0934 0 0
7:53 am 07:53 Sunny 78 25.6 39 3.9 25 25 NNW 3 6 30 1016 10 16.0934 0 0
8:53 am 08:53 Sunny 82 27.8 39 3.9 22 22 Calm 30 1016 10 16.0934 0 0
9:53 am 09:53 Sunny 86 30 39 3.9 19 19 Calm 30 1016 10 16.0934 0 0
10:53 am 10:53 Sunny 93 33.9 36 2.2 13 13 ESE 9 15 29.97 1015 10 16.0934 0 0
11:53 am 11:53 Sunny 96 35.6 33 0.6 11 11 SE 9 15 29.94 1014 10 16.0934 0 0
12:53 pm 12:53 Sunny 98 36.7 26 -3.3 8 8 SW 14 22 29.91 1013 10 16.0934 0 0
1:53 pm 13:53 Sunny 99 37.2 24 -4.4 7 7 SW 14 22 29.88 1012 10 16.0934 0 0
2:53 pm 14:53 Sunny 100 37.8 26 -3.3 7 7 WSW 14 22 29.85 1011 10 16.0934 0 0
3:53 pm 15:53 Sunny 99 37.2 22 -5.6 6 6 SW 17 28 29.82 1010 10 16.0934 0 0
4:53 pm 16:53 Sunny 99 37.2 25 -3.9 7 7 SW 14 22 29.8 1009 10 16.0934 0 0
5:53 pm 17:53 Sunny 97 36.1 22 -5.6 7 7 SW 16 26 29.79 1009 10 16.0934 0 0
6:53 pm 18:53 Sunny 94 34.4 16 -8.9 6 6 SW 16 26 29.79 1009 10 16.0934 0 0
7:53 pm 19:53 Clear 92 33.3 20 -6.7 7 7 SW 10 17 29.8 1009 10 16.0934 0 0
8:53 pm 20:53 Clear 90 32.2 22 -5.6 8 8 SW 3 6 29.81 1009 10 16.0934 0 0
9:53 pm 21:53 Clear 86 30 26 -3.3 11 11 SW 7 11 29.8 1009 10 16.0934 0 0
10:53 pm 22:53 Clear 86 30 21 -6.1 9 9 WSW 8 13 29.8 1009 10 16.0934 0 0
11:53 pm 23:53 Clear 84 28.9 27 -2.8 12 12 WSW 10 17 29.79 1009 10 16.0934 0 0

Powered by AerisWeather